Time;durP1;ratioP1;P1;durP2;ratioP2;P2;SDS_P1;SDS_P2;PMS_P1;PMS_P2;Temp;Humidity;BMP_temperature;BMP_pressure;BME280_temperature;BME280_humidity;BME280_pressure;Samples;Min_cycle;Max_cycle;Signal;HPM_P1;HPM_P2
2021/05/03 00:00:57;;;;;;;;;2.00;2.00;;;;;18.11;20.42;99369.38;4958325;28;10134;-49
2021/05/03 00:03:22;;;;;;;;;2.00;2.00;;;;;18.00;19.93;99368.13;4969254;28;8828;-48
2021/05/03 00:05:56;;;;;;;;;2.50;2.00;;;;;17.87;19.84;99372.63;4977928;28;9472;-48
2021/05/03 00:08:22;;;;;;;;;2.00;2.00;;;;;17.81;19.54;99363.78;4966429;28;8805;-48
2021/05/03 00:10:47;;;;;;;;;2.00;2.00;;;;;17.79;19.39;99371.50;4961643;28;9516;-48
2021/05/03 00:13:12;;;;;;;;;2.00;2.00;;;;;17.79;19.11;99366.81;4978991;28;8855;-49
2021/05/03 00:15:37;;;;;;;;;2.00;2.00;;;;;17.81;19.10;99371.97;4972318;28;8813;-48
2021/05/03 00:18:03;;;;;;;;;2.00;2.00;;;;;17.84;18.83;99375.97;4964575;28;9566;-49
2021/05/03 00:20:28;;;;;;;;;2.00;2.00;;;;;17.85;18.75;99369.38;4961517;28;8809;-48
2021/05/03 00:22:54;;;;;;;;;2.00;2.00;;;;;17.84;18.62;99356.88;4970356;28;8786;-49
2021/05/03 00:25:20;;;;;;;;;2.00;2.00;;;;;17.87;18.45;99367.16;4957112;28;8809;-48
2021/05/03 00:27:45;;;;;;;;;2.00;2.00;;;;;17.91;18.36;99363.47;4953111;28;8812;-49
2021/05/03 00:30:11;;;;;;;;;2.20;2.20;;;;;17.92;18.29;99365.09;4952636;28;9564;-49
2021/05/03 00:32:37;;;;;;;;;2.00;2.00;;;;;17.93;18.35;99363.94;4964871;28;8771;-48
2021/05/03 00:35:02;;;;;;;;;2.50;2.50;;;;;17.94;17.92;99362.00;4972027;28;8832;-48
2021/05/03 00:37:28;;;;;;;;;2.00;2.00;;;;;17.96;18.06;99359.78;4974909;28;8981;-49
2021/05/03 00:39:53;;;;;;;;;2.00;2.00;;;;;17.96;17.83;99362.50;4974577;28;8795;-48
2021/05/03 00:42:18;;;;;;;;;2.50;2.50;;;;;17.94;17.99;99354.66;4986889;28;8788;-49
2021/05/03 00:44:44;;;;;;;;;2.00;2.00;;;;;18.17;17.51;99366.16;4976327;28;8924;-49
2021/05/03 00:47:10;;;;;;;;;2.25;2.25;;;;;18.31;18.13;99355.03;4975109;28;8769;-48
2021/05/03 00:49:35;;;;;;;;;1.80;1.80;;;;;18.50;18.64;99362.84;4980773;28;8771;-48
2021/05/03 00:52:01;;;;;;;;;2.00;2.00;;;;;18.09;18.87;99358.78;4982084;28;8838;-48
2021/05/03 00:54:26;;;;;;;;;2.00;2.00;;;;;17.68;19.62;99357.38;4974800;28;8869;-49
2021/05/03 00:56:52;;;;;;;;;2.00;2.00;;;;;17.50;19.82;99353.03;4973342;28;8840;-48
2021/05/03 00:59:17;;;;;;;;;2.00;2.00;;;;;17.45;20.02;99353.19;4977459;28;8944;-48
2021/05/03 01:01:43;;;;;;;;;2.00;2.00;;;;;17.39;20.56;99356.09;4977017;28;8775;-48
2021/05/03 01:04:08;;;;;;;;;2.00;2.00;;;;;17.37;20.57;99352.09;4980357;28;9385;-48
2021/05/03 01:06:33;;;;;;;;;2.50;2.50;;;;;17.34;20.87;99363.63;4980060;28;9226;-47
2021/05/03 01:08:59;;;;;;;;;3.00;3.00;;;;;17.32;20.85;99360.44;4977266;28;8815;-48
2021/05/03 01:11:25;;;;;;;;;2.00;2.00;;;;;17.29;21.32;99363.78;4975803;28;8810;-49
2021/05/03 01:13:50;;;;;;;;;2.00;2.00;;;;;17.26;21.32;99354.34;4982540;28;8783;-48
2021/05/03 01:16:16;;;;;;;;;2.50;2.50;;;;;17.24;21.40;99362.03;4982918;28;8799;-47
2021/05/03 01:18:41;;;;;;;;;2.00;2.00;;;;;17.20;21.50;99359.13;4978598;28;10136;-48
2021/05/03 01:21:07;;;;;;;;;3.00;3.00;;;;;17.19;21.61;99360.25;4962860;28;8789;-48
2021/05/03 01:23:33;;;;;;;;;2.00;2.00;;;;;17.18;21.52;99358.66;4955158;28;8792;-48
2021/05/03 01:25:59;;;;;;;;;2.00;2.00;;;;;17.16;21.75;99351.91;4960263;28;8824;-48
2021/05/03 01:28:25;;;;;;;;;2.80;2.80;;;;;17.14;21.93;99356.88;4953686;28;8805;-48
2021/05/03 01:30:50;;;;;;;;;3.00;3.00;;;;;17.11;22.00;99350.13;4955979;28;8839;-48
2021/05/03 01:33:18;;;;;;;;;2.25;2.25;;;;;17.11;22.22;99357.50;4971346;28;8817;-48
2021/05/03 01:35:46;;;;;;;;;2.80;2.00;;;;;17.09;22.04;99349.66;4977852;28;8771;-48
2021/05/03 01:38:12;;;;;;;;;2.80;2.80;;;;;17.05;22.20;99348.69;4983807;28;8791;-48
2021/05/03 01:40:40;;;;;;;;;2.00;2.00;;;;;17.05;22.45;99339.72;4976342;28;8769;-48
2021/05/03 01:43:17;;;;;;;;;3.00;3.00;;;;;17.03;22.23;99343.56;4985169;28;8921;-48
2021/05/03 01:45:46;;;;;;;;;3.00;3.00;;;;;17.01;22.38;99345.81;4978283;28;9492;-48
2021/05/03 01:48:15;;;;;;;;;3.20;3.20;;;;;17.00;22.56;99337.94;4976222;28;8877;-49
2021/05/03 01:50:40;;;;;;;;;4.00;3.00;;;;;16.99;22.35;99341.78;4972814;28;8825;-48
2021/05/03 01:53:07;;;;;;;;;3.00;3.00;;;;;16.97;22.68;99338.56;4971655;28;8792;-48
2021/05/03 01:55:34;;;;;;;;;2.00;2.00;;;;;16.95;22.83;99338.88;4960540;28;8867;-48
2021/05/03 01:58:01;;;;;;;;;4.80;4.00;;;;;16.96;22.81;99342.44;4978714;28;8906;-48
2021/05/03 02:00:27;;;;;;;;;2.20;2.20;;;;;16.94;22.80;99337.31;4973413;28;8786;-48
2021/05/03 02:02:52;;;;;;;;;3.25;3.25;;;;;16.93;22.97;99343.06;4977021;28;8825;-48
2021/05/03 02:05:21;;;;;;;;;3.00;3.00;;;;;16.92;22.95;99333.28;4983382;28;8791;-48
2021/05/03 02:07:59;;;;;;;;;2.80;2.80;;;;;16.89;23.16;99334.72;4980915;28;8751;-48
2021/05/03 02:10:25;;;;;;;;;3.00;3.00;;;;;16.88;23.19;99338.56;4976082;28;8815;-48
2021/05/03 02:12:50;;;;;;;;;2.80;2.80;;;;;16.88;23.05;99338.56;4980130;28;8838;-48
2021/05/03 02:15:15;;;;;;;;;2.00;2.00;;;;;16.86;23.29;99327.19;4974690;28;8811;-48
2021/05/03 02:17:41;;;;;;;;;3.00;3.00;;;;;16.85;23.13;99336.50;4979978;28;8962;-48
2021/05/03 02:20:07;;;;;;;;;3.00;3.00;;;;;16.84;23.21;99337.59;4975879;28;8821;-48
2021/05/03 02:22:32;;;;;;;;;3.40;3.40;;;;;16.83;23.25;99331.34;4977236;28;8880;-48
2021/05/03 02:24:58;;;;;;;;;4.25;3.75;;;;;16.82;23.33;99328.91;4979173;28;8815;-48
2021/05/03 02:27:23;;;;;;;;;2.75;2.75;;;;;16.82;23.24;99345.25;4962861;28;8793;-48
2021/05/03 02:29:49;;;;;;;;;2.00;2.00;;;;;16.80;23.39;99331.16;4957854;28;8875;-48
2021/05/03 02:32:15;;;;;;;;;4.25;4.25;;;;;16.79;23.34;99324.88;4959826;28;9007;-48
2021/05/03 02:34:40;;;;;;;;;3.00;3.00;;;;;16.77;23.38;99327.13;4961717;28;8778;-48
2021/05/03 02:37:05;;;;;;;;;3.25;3.25;;;;;16.77;23.41;99321.69;4959790;28;8836;-48
2021/05/03 02:39:30;;;;;;;;;3.00;3.00;;;;;16.76;23.60;99322.00;4953366;28;8810;-48
2021/05/03 02:41:56;;;;;;;;;3.00;3.00;;;;;16.74;23.63;99316.88;4975088;28;8794;-48
2021/05/03 02:44:21;;;;;;;;;3.00;3.00;;;;;16.75;23.50;99325.84;4979978;28;8779;-48
2021/05/03 02:46:47;;;;;;;;;4.00;3.25;;;;;16.73;23.80;99314.47;4971700;28;8831;-48
2021/05/03 02:49:12;;;;;;;;;3.00;3.00;;;;;16.72;23.64;99316.38;4961031;28;8824;-48
2021/05/03 02:51:38;;;;;;;;;3.00;3.00;;;;;16.74;23.70;99316.06;4974067;28;8782;-48
2021/05/03 02:54:04;;;;;;;;;3.50;3.50;;;;;16.72;23.65;99324.56;4962945;28;8822;-48
2021/05/03 02:56:30;;;;;;;;;3.60;3.60;;;;;16.72;23.67;99308.22;4969780;28;8976;-48
2021/05/03 02:58:55;;;;;;;;;2.50;2.50;;;;;16.70;23.83;99310.44;4972389;28;8794;-48
2021/05/03 03:01:20;;;;;;;;;3.00;3.00;;;;;16.70;23.91;99307.72;4960346;28;8830;-47
2021/05/03 03:03:46;;;;;;;;;4.00;4.00;;;;;16.70;23.96;99304.22;4956452;28;8792;-48
2021/05/03 03:06:11;;;;;;;;;4.00;4.00;;;;;16.70;23.88;99298.78;4969202;28;8801;-48
2021/05/03 03:08:36;;;;;;;;;3.25;3.25;;;;;16.68;23.88;99301.81;4975441;28;8783;-48
2021/05/03 03:11:02;;;;;;;;;4.00;4.00;;;;;16.66;23.84;99291.22;4976840;28;8809;-48
2021/05/03 03:13:27;;;;;;;;;4.00;4.00;;;;;16.67;23.93;99297.47;4974501;28;8841;-50
2021/05/03 03:15:53;;;;;;;;;2.00;2.00;;;;;16.65;24.15;99296.97;4978705;28;9577;-48
2021/05/03 03:18:18;;;;;;;;;4.00;4.00;;;;;16.65;24.01;99295.06;4977022;28;8791;-48
2021/05/03 03:20:44;;;;;;;;;4.00;4.00;;;;;16.64;23.97;99289.94;4980553;28;8791;-48
2021/05/03 03:23:09;;;;;;;;;4.00;3.60;;;;;16.64;23.94;99293.47;4979897;28;8771;-48
2021/05/03 03:25:35;;;;;;;;;3.00;3.00;;;;;16.64;24.13;99288.03;4977637;28;8820;-50
2021/05/03 03:28:01;;;;;;;;;4.00;4.00;;;;;16.61;24.14;99285.94;4983341;28;8790;-50
2021/05/03 03:30:26;;;;;;;;;3.00;3.00;;;;;16.61;24.24;99285.94;4971420;28;9776;-50
2021/05/03 03:32:52;;;;;;;;;2.25;2.25;;;;;16.61;24.22;99285.94;4980778;28;8807;-50
2021/05/03 03:35:19;;;;;;;;;3.00;3.00;;;;;16.60;24.15;99278.06;4973437;28;8865;-50
2021/05/03 03:37:46;;;;;;;;;4.00;4.00;;;;;16.59;24.37;99285.44;4978829;28;8894;-50
2021/05/03 03:40:14;;;;;;;;;5.00;5.00;;;;;16.58;24.25;99280.31;4980829;28;8799;-50
2021/05/03 03:42:39;;;;;;;;;3.80;3.80;;;;;16.58;24.54;99278.38;4970057;28;8810;-50
2021/05/03 03:45:06;;;;;;;;;3.00;3.00;;;;;16.58;24.33;99275.66;4978755;28;8841;-50
2021/05/03 03:47:32;;;;;;;;;2.60;2.60;;;;;16.56;24.38;99280.63;4974951;28;8798;-51
2021/05/03 03:49:57;;;;;;;;;4.00;4.00;;;;;16.55;24.49;99280.94;4974627;28;8779;-50
2021/05/03 03:52:24;;;;;;;;;3.00;3.00;;;;;16.55;24.50;99281.75;4977415;28;8790;-50
2021/05/03 03:54:49;;;;;;;;;3.00;3.00;;;;;16.54;24.38;99280.16;4957165;28;8818;-50
2021/05/03 03:57:15;;;;;;;;;4.60;4.60;;;;;16.54;24.51;99277.41;4971360;28;8821;-50
2021/05/03 03:59:43;;;;;;;;;5.25;5.25;;;;;16.53;24.56;99283.19;4976727;28;8900;-50
2021/05/03 04:02:08;;;;;;;;;4.00;3.20;;;;;16.53;24.60;99278.53;4973116;28;8803;-49
2021/05/03 04:04:35;;;;;;;;;3.00;3.00;;;;;16.52;24.63;99267.97;4975493;28;8898;-49
2021/05/03 04:23:04;;;;;;;;;4.00;4.00;;;;;16.48;24.59;99265.09;4982186;28;8873;-48
2021/05/03 04:25:35;;;;;;;;;5.00;5.00;;;;;16.47;24.67;99268.91;4978107;28;8888;-48
2021/05/03 04:28:01;;;;;;;;;3.00;3.00;;;;;16.47;24.57;99275.16;4979093;28;8797;-48
2021/05/03 04:30:26;;;;;;;;;5.40;4.60;;;;;16.47;24.96;99271.63;4977994;28;9576;-48
2021/05/03 04:32:51;;;;;;;;;3.00;3.00;;;;;16.45;24.76;99266.50;4980775;28;8833;-48
2021/05/03 04:35:17;;;;;;;;;4.00;4.00;;;;;16.45;24.79;99271.94;4982648;28;8775;-48
2021/05/03 04:37:42;;;;;;;;;4.50;4.50;;;;;16.44;24.89;99273.06;4978257;28;8905;-48
2021/05/03 04:40:08;;;;;;;;;3.50;3.50;;;;;16.43;24.96;99268.75;4959806;28;8969;-48
2021/05/03 04:42:34;;;;;;;;;4.00;4.00;;;;;16.44;24.76;99275.00;4951602;28;8870;-48
2021/05/03 04:44:59;;;;;;;;;3.00;3.00;;;;;16.42;24.76;99274.50;4959803;28;8786;-48
2021/05/03 04:47:24;;;;;;;;;5.25;5.00;;;;;16.42;24.71;99272.56;4959626;28;8802;-48
2021/05/03 04:49:50;;;;;;;;;4.00;4.00;;;;;16.42;24.95;99271.78;4966904;28;8885;-48
2021/05/03 04:52:15;;;;;;;;;4.00;4.00;;;;;16.42;24.95;99261.69;4983134;28;9853;-48
2021/05/03 04:54:40;;;;;;;;;5.75;4.00;;;;;16.40;25.10;99263.94;4972666;28;14741;-49
2021/05/03 04:57:06;;;;;;;;;4.50;4.50;;;;;16.42;24.95;99269.06;4966938;28;8969;-48
2021/05/03 04:59:32;;;;;;;;;4.00;4.00;;;;;16.41;24.92;99262.81;4973022;28;8791;-48
2021/05/03 05:01:57;;;;;;;;;3.00;3.00;;;;;16.40;24.94;99255.75;4971364;28;8789;-48
2021/05/03 05:04:22;;;;;;;;;4.75;4.75;;;;;16.40;25.09;99263.13;4977317;28;8825;-48
2021/05/03 05:06:48;;;;;;;;;4.00;4.00;;;;;16.40;25.04;99268.59;4960100;28;8793;-49
2021/05/03 05:09:13;;;;;;;;;4.00;4.00;;;;;16.40;25.16;99263.13;4960786;28;8818;-49
2021/05/03 05:11:39;;;;;;;;;4.75;4.75;;;;;16.38;25.11;99257.22;4972136;28;8802;-49
2021/05/03 05:14:04;;;;;;;;;4.75;4.75;;;;;16.37;25.20;99259.09;4973690;28;8846;-48
2021/05/03 05:16:29;;;;;;;;;4.00;4.00;;;;;16.39;25.31;99261.53;4952990;28;8838;-48
2021/05/03 05:18:55;;;;;;;;;2.75;2.75;;;;;16.38;25.33;99259.94;4962898;28;9550;-48
2021/05/03 05:21:21;;;;;;;;;3.40;3.40;;;;;16.36;25.20;99259.41;4957140;28;9587;-49
2021/05/03 05:23:47;;;;;;;;;4.00;4.00;;;;;16.36;25.21;99257.53;4971046;28;8805;-48
2021/05/03 05:26:13;;;;;;;;;3.80;3.80;;;;;16.35;25.29;99258.63;4979350;28;8799;-49
2021/05/03 05:28:38;;;;;;;;;4.00;4.00;;;;;16.34;25.19;99259.75;4978185;28;9523;-49
2021/05/03 05:31:04;;;;;;;;;3.00;3.00;;;;;16.35;25.37;99263.28;4977594;28;8810;-49
2021/05/03 05:33:29;;;;;;;;;4.25;4.25;;;;;16.37;25.45;99258.31;4977902;28;8805;-49
2021/05/03 05:35:55;;;;;;;;;5.75;4.00;;;;;16.37;25.27;99261.03;4976186;28;8803;-49
2021/05/03 05:38:20;;;;;;;;;3.00;3.00;;;;;16.35;25.35;99255.13;4979012;28;8822;-50
2021/05/03 05:40:46;;;;;;;;;3.00;3.00;;;;;16.34;25.48;99262.47;4976892;28;8812;-49
2021/05/03 05:43:12;;;;;;;;;3.40;3.40;;;;;16.39;24.96;99256.06;4977658;28;8802;-50
2021/05/03 05:45:38;;;;;;;;;4.40;4.40;;;;;16.40;26.22;99250.31;4973960;28;8810;-50
2021/05/03 05:48:03;;;;;;;;;5.00;5.00;;;;;16.38;27.58;99254.50;4972814;28;8829;-50
2021/05/03 05:50:29;;;;;;;;;4.00;4.00;;;;;16.37;27.14;99258.31;4974576;28;8879;-49
2021/05/03 05:52:55;;;;;;;;;6.00;6.00;;;;;16.36;26.79;99251.25;4975204;28;9498;-50
2021/05/03 05:55:20;;;;;;;;;6.40;6.00;;;;;16.37;26.17;99258.31;4975777;28;8836;-50
2021/05/03 05:57:46;;;;;;;;;4.00;4.00;;;;;16.35;26.44;99250.47;4976818;28;8782;-49
2021/05/03 06:00:12;;;;;;;;;5.50;5.50;;;;;16.34;26.47;99248.06;4960869;28;8834;-51
2021/05/03 06:02:38;;;;;;;;;3.00;3.00;;;;;16.32;26.42;99245.66;4971982;28;8795;-49
2021/05/03 06:05:03;;;;;;;;;4.00;4.00;;;;;16.32;26.34;99247.56;4970725;28;8819;-50
2021/05/03 06:07:29;;;;;;;;;5.50;5.25;;;;;16.31;26.38;99246.00;4972889;28;8832;-49
2021/05/03 06:09:54;;;;;;;;;4.00;4.00;;;;;16.28;26.30;99240.03;4959867;28;8836;-50
2021/05/03 06:12:19;;;;;;;;;4.00;4.00;;;;;16.27;26.28;99243.88;4957748;28;8842;-50
2021/05/03 06:14:45;;;;;;;;;4.00;4.00;;;;;16.27;26.36;99243.09;4971284;28;8849;-50
2021/05/03 06:17:10;;;;;;;;;4.25;4.25;;;;;16.24;26.38;99244.50;4969792;28;8787;-50
2021/05/03 06:19:35;;;;;;;;;4.00;4.00;;;;;16.23;26.60;99244.81;4962644;28;8842;-49
2021/05/03 06:22:01;;;;;;;;;5.50;5.00;;;;;16.12;27.83;99244.31;4979451;28;9512;-62
2021/05/03 06:24:26;;;;;;;;;4.50;4.50;;;;;16.16;28.58;99249.91;4976003;28;8802;-49
2021/05/03 06:26:51;;;;;;;;;5.00;5.00;;;;;16.19;28.11;99238.41;4967127;28;8829;-49
2021/05/03 06:29:17;;;;;;;;;4.00;3.75;;;;;16.21;27.53;99236.19;4958210;28;8820;-49
2021/05/03 06:31:45;;;;;;;;;4.00;4.00;;;;;16.21;27.17;99234.25;4961949;28;8813;-49
2021/05/03 06:34:10;;;;;;;;;5.00;5.00;;;;;16.20;27.07;99235.38;4978802;28;8818;-49
2021/05/03 06:36:35;;;;;;;;;4.00;4.00;;;;;16.19;26.94;99236.50;4961244;28;8833;-49
2021/05/03 06:39:01;;;;;;;;;4.00;4.00;;;;;16.18;27.02;99243.06;4973647;28;8787;-49
2021/05/03 06:41:26;;;;;;;;;4.00;4.00;;;;;16.18;26.97;99240.34;4977087;28;8866;-49
2021/05/03 06:43:52;;;;;;;;;4.00;4.00;;;;;16.16;26.95;99239.84;4980014;28;8803;-48
2021/05/03 06:46:17;;;;;;;;;4.25;4.00;;;;;16.14;26.99;99233.91;4974230;28;8898;-49
2021/05/03 06:48:42;;;;;;;;;4.00;4.00;;;;;16.13;26.96;99232.31;4961531;28;8800;-49
2021/05/03 06:51:07;;;;;;;;;4.75;4.75;;;;;16.13;26.96;99226.06;4960944;28;8778;-49
2021/05/03 06:53:33;;;;;;;;;3.75;3.75;;;;;16.12;26.82;99229.91;4960298;28;8845;-48
2021/05/03 06:55:58;;;;;;;;;4.75;4.75;;;;;16.11;26.97;99226.38;4965024;28;8841;-49
2021/05/03 06:58:24;;;;;;;;;5.75;4.75;;;;;16.10;26.88;99222.06;4974008;28;8809;-48
2021/05/03 07:00:49;;;;;;;;;4.00;4.00;;;;;16.08;26.86;99224.28;4982061;28;8795;-50
2021/05/03 07:03:14;;;;;;;;;6.00;5.00;;;;;16.08;26.99;99219.66;4963513;28;9533;-49
2021/05/03 07:05:40;;;;;;;;;4.00;4.00;;;;;16.07;26.91;99228.13;4956931;28;8792;-49
2021/05/03 07:08:07;;;;;;;;;4.50;4.50;;;;;16.06;26.86;99219.16;4965343;28;8791;-49
2021/05/03 07:10:33;;;;;;;;;4.40;4.00;;;;;16.06;27.08;99215.66;4980239;28;8863;-49
2021/05/03 07:13:01;;;;;;;;;4.60;4.60;;;;;16.05;27.03;99219.47;4979608;28;8823;-50
2021/05/03 07:15:27;;;;;;;;;3.80;3.80;;;;;16.04;27.03;99212.41;4975977;28;8842;-49
2021/05/03 07:17:52;;;;;;;;;4.00;4.00;;;;;16.04;27.02;99215.13;4979072;28;8802;-49
2021/05/03 07:20:17;;;;;;;;;4.00;4.00;;;;;16.03;26.92;99210.84;4978737;28;8798;-49
2021/05/03 07:22:43;;;;;;;;;3.00;3.00;;;;;16.06;26.96;99207.50;4976017;28;8787;-48
2021/05/03 07:25:11;;;;;;;;;5.00;4.60;;;;;16.04;27.09;99206.97;4983574;28;8807;-49
2021/05/03 07:27:38;;;;;;;;;3.40;3.40;;;;;16.04;27.04;99212.41;4979178;28;8825;-49
2021/05/03 07:30:06;;;;;;;;;4.80;4.80;;;;;16.04;26.89;99206.97;4975913;28;8950;-49
2021/05/03 07:32:31;;;;;;;;;4.00;4.00;;;;;16.03;26.99;99210.84;4970048;28;8798;-49
2021/05/03 07:34:56;;;;;;;;;3.25;3.25;;;;;16.02;26.97;99211.94;4976792;28;8782;-48
2021/05/03 07:37:22;;;;;;;;;3.50;3.50;;;;;16.03;27.09;99210.84;4976469;28;8795;-48
2021/05/03 07:39:48;;;;;;;;;5.00;4.40;;;;;16.01;27.18;99208.44;4981595;28;8802;-49
2021/05/03 07:42:13;;;;;;;;;3.00;3.00;;;;;16.00;27.16;99206.81;4974813;28;8944;-49
2021/05/03 07:44:38;;;;;;;;;6.00;4.00;;;;;16.01;26.97;99202.19;4977314;28;11465;-48
2021/05/03 07:47:04;;;;;;;;;3.00;3.00;;;;;16.00;27.15;99201.38;4968119;28;8923;-48
2021/05/03 07:49:30;;;;;;;;;3.50;3.50;;;;;15.99;27.01;99196.25;4977606;28;8862;-49
2021/05/03 07:51:55;;;;;;;;;3.80;3.80;;;;;15.98;27.10;99203.59;4971090;28;8791;-49
2021/05/03 07:54:20;;;;;;;;;4.00;3.50;;;;;15.98;27.11;99200.88;4976224;28;8999;-49
2021/05/03 07:56:46;;;;;;;;;5.50;5.50;;;;;15.99;27.01;99199.78;4973958;28;8807;-48
2021/05/03 07:59:11;;;;;;;;;4.00;4.00;;;;;15.97;27.21;99201.19;4973620;28;8880;-49
2021/05/03 08:01:38;;;;;;;;;4.00;4.00;;;;;15.95;27.19;99200.72;4978985;28;8782;-49
2021/05/03 08:04:03;;;;;;;;;4.00;4.00;;;;;15.95;27.08;99195.28;4978785;28;8808;-49
2021/05/03 08:06:29;;;;;;;;;4.00;4.00;;;;;15.95;27.10;99196.06;4991727;28;8799;-49
2021/05/03 08:08:54;;;;;;;;;4.25;4.00;;;;;15.96;27.13;99194.19;4974021;28;8921;-49
2021/05/03 08:11:20;;;;;;;;;3.00;3.00;;;;;15.95;27.33;99198.78;4972641;28;9625;-49
2021/05/03 08:13:47;;;;;;;;;3.80;3.20;;;;;15.95;27.18;99198.00;4972866;28;8750;-49
2021/05/03 08:16:14;;;;;;;;;4.20;3.60;;;;;15.92;27.22;99193.19;4977237;28;9613;-50
2021/05/03 08:18:40;;;;;;;;;3.80;3.80;;;;;15.94;27.54;99193.69;4981098;28;9491;-49
2021/05/03 08:21:07;;;;;;;;;4.00;4.00;;;;;15.93;27.09;99192.88;4978487;28;8819;-48
2021/05/03 08:23:33;;;;;;;;;3.40;3.40;;;;;15.93;27.09;99186.63;4976158;28;8790;-50
2021/05/03 08:25:59;;;;;;;;;6.00;5.40;;;;;15.92;27.01;99179.56;4979094;28;8817;-49
2021/05/03 08:28:24;;;;;;;;;3.00;3.00;;;;;15.90;27.15;99180.72;4978957;28;8795;-48
2021/05/03 08:30:52;;;;;;;;;3.00;3.00;;;;;15.92;27.15;99182.28;4979071;28;8807;-51
2021/05/03 08:33:18;;;;;;;;;3.20;3.20;;;;;15.92;27.19;99179.56;4980152;28;8802;-50
2021/05/03 08:35:44;;;;;;;;;4.00;4.00;;;;;15.91;27.38;99176.06;4977154;28;8916;-50
2021/05/03 08:38:09;;;;;;;;;4.00;4.00;;;;;15.89;27.20;99173.66;4977547;28;8833;-50
2021/05/03 08:40:35;;;;;;;;;3.00;3.00;;;;;15.87;27.34;99169.66;4975910;28;8811;-50
2021/05/03 08:43:02;;;;;;;;;4.00;4.00;;;;;15.86;27.23;99173.50;4980210;28;8794;-49
2021/05/03 08:45:29;;;;;;;;;4.00;4.00;;;;;15.85;27.21;99167.25;4977235;28;8826;-50
2021/05/03 08:50:50;;;;;;;;;3.20;3.20;;;;;15.84;27.64;99162.91;4975122;28;8783;-50
2021/05/03 08:53:21;;;;;;;;;3.80;3.80;;;;;15.86;27.29;99160.69;4976846;28;8806;-50
2021/05/03 08:55:46;;;;;;;;;3.40;3.40;;;;;15.79;27.30;99151.38;4978431;28;8773;-51
2021/05/03 08:58:12;;;;;;;;;4.00;4.00;;;;;15.85;27.40;99155.59;4978113;28;8833;-50
2021/05/03 09:00:37;;;;;;;;;3.75;3.75;;;;;15.82;27.40;99159.72;4977536;28;8814;-50
2021/05/03 09:03:09;;;;;;;;;4.00;4.00;;;;;15.84;27.28;99159.41;4982051;28;8807;-50
2021/05/03 09:05:35;;;;;;;;;3.60;3.60;;;;;15.82;27.38;99167.88;4981149;28;8787;-49
2021/05/03 09:08:00;;;;;;;;;4.00;3.50;;;;;15.84;27.40;99176.50;4977478;28;8826;-49
2021/05/03 09:10:25;;;;;;;;;4.00;4.00;;;;;15.85;27.24;99161.81;4980654;28;8947;-49
2021/05/03 09:12:52;;;;;;;;;4.00;4.00;;;;;15.85;27.33;99156.38;4981102;28;8825;-48
2021/05/03 09:15:23;;;;;;;;;3.00;3.00;;;;;15.83;27.32;99153.19;4978048;28;9534;-48
2021/05/03 09:17:50;;;;;;;;;4.00;4.00;;;;;15.83;27.33;99164.06;4977048;28;8786;-49
2021/05/03 09:20:19;;;;;;;;;3.80;3.80;;;;;15.83;27.50;99153.19;4969576;28;9545;-49
2021/05/03 09:23:22;;;;;;;;;4.00;4.00;;;;;15.82;27.38;99146.13;4960418;28;8795;-49
2021/05/03 09:25:50;;;;;;;;;3.00;3.00;;;;;15.83;27.43;99145.00;4976494;28;8795;-49
2021/05/03 09:28:29;;;;;;;;;4.20;3.80;;;;;15.83;27.36;99147.72;4978430;28;9864;-45
2021/05/03 09:30:54;;;;;;;;;2.80;2.80;;;;;15.83;27.58;99139.56;4978539;28;8831;-49
2021/05/03 09:33:24;;;;;;;;;3.00;3.00;;;;;15.82;27.48;99142.59;4978445;28;8953;-49
2021/05/03 09:35:54;;;;;;;;;5.00;4.00;;;;;15.80;27.55;99137.47;4976839;28;8785;-48
2021/05/03 09:38:32;;;;;;;;;3.20;3.20;;;;;15.80;27.46;99131.25;4977106;28;8819;-49
2021/05/03 09:41:26;;;;;;;;;4.00;4.00;;;;;15.80;27.63;99120.38;4978109;28;8824;-49
2021/05/03 09:44:05;;;;;;;;;3.00;3.00;;;;;15.79;27.44;99130.44;4978840;28;8781;-49
2021/05/03 09:46:44;;;;;;;;;3.00;3.00;;;;;15.79;27.63;99130.44;4979168;28;8956;-49
2021/05/03 09:49:16;;;;;;;;;3.40;3.40;;;;;15.78;27.45;99122.59;4977334;28;8799;-49
2021/05/03 09:51:44;;;;;;;;;5.20;4.00;;;;;15.79;27.48;99122.28;4980163;28;8839;-48
2021/05/03 09:54:14;;;;;;;;;3.00;3.00;;;;;15.79;27.68;99126.91;4961989;28;8864;-50
2021/05/03 09:56:48;;;;;;;;;3.00;2.80;;;;;15.78;27.59;99126.13;4968594;28;8976;-49
2021/05/03 09:59:33;;;;;;;;;2.20;2.20;;;;;15.77;27.63;99121.78;4979265;28;8790;-49
2021/05/03 10:02:00;;;;;;;;;3.00;3.00;;;;;15.77;27.26;99113.63;4975845;28;8805;-47
2021/05/03 10:04:26;;;;;;;;;4.00;4.00;;;;;15.73;30.06;99115.34;4977091;28;8823;-46
2021/05/03 10:06:52;;;;;;;;;3.40;3.40;;;;;15.77;29.88;99105.47;4960555;28;8816;-47
2021/05/03 10:09:18;;;;;;;;;4.00;3.00;;;;;15.78;29.60;99107.09;4976677;28;8815;-49
2021/05/03 10:11:44;;;;;;;;;3.00;3.00;;;;;15.79;29.28;99103.22;4967052;28;8806;-49
2021/05/03 10:14:09;;;;;;;;;4.00;4.00;;;;;15.79;28.87;99100.50;4959790;28;8789;-48
2021/05/03 10:16:35;;;;;;;;;3.50;3.50;;;;;15.80;28.74;99110.28;4957912;28;9619;-49
2021/05/03 10:19:01;;;;;;;;;3.60;3.60;;;;;15.80;28.45;99104.06;4961197;28;8832;-49
2021/05/03 10:21:26;;;;;;;;;3.50;3.50;;;;;15.79;28.51;99097.78;4958810;28;8806;-50
2021/05/03 10:23:53;;;;;;;;;5.00;5.00;;;;;15.80;28.31;99104.84;4956599;28;8823;-49
2021/05/03 10:26:18;;;;;;;;;4.00;4.00;;;;;15.78;28.42;99096.22;4957056;28;8793;-49
2021/05/03 10:28:56;;;;;;;;;3.00;3.00;;;;;15.81;28.21;99094.75;4957724;28;8782;-49
2021/05/03 10:31:23;;;;;;;;;3.00;3.00;;;;;15.81;28.23;99097.47;4977557;28;8839;-48
2021/05/03 10:33:51;;;;;;;;;3.80;3.80;;;;;15.82;28.14;99097.16;4981744;28;8814;-49
2021/05/03 10:36:37;;;;;;;;;3.00;3.00;;;;;15.82;28.19;99101.81;4977434;28;8814;-49
2021/05/03 10:39:24;;;;;;;;;3.80;3.80;;;;;15.81;28.30;99098.31;4979326;28;8802;-49
2021/05/03 10:42:07;;;;;;;;;3.00;3.00;;;;;15.82;28.14;99112.69;4978600;28;8814;-50
2021/05/03 10:44:34;;;;;;;;;2.80;2.80;;;;;15.82;28.09;99102.59;4978333;28;8801;-50
2021/05/03 10:47:08;;;;;;;;;6.20;6.20;;;;;15.81;28.19;99111.91;4977083;28;8775;-50
2021/05/03 10:49:38;;;;;;;;;3.20;3.20;;;;;15.81;28.29;99106.47;4977009;28;8803;-49
2021/05/03 10:52:07;;;;;;;;;2.00;2.00;;;;;15.79;28.25;99100.50;4960651;28;8835;-49
2021/05/03 10:57:08;;;;;;;;;4.00;4.00;;;;;15.79;28.28;99092.34;4976277;28;8799;-50
2021/05/03 10:59:48;;;;;;;;;4.00;4.00;;;;;15.81;28.22;99095.59;4978654;28;9693;-49
2021/05/03 11:02:16;;;;;;;;;4.00;4.00;;;;;15.80;28.20;99088.53;4976769;28;8813;-49
2021/05/03 11:05:09;;;;;;;;;3.60;3.60;;;;;15.80;28.26;99076.88;4976910;28;8759;-49
2021/05/03 11:07:35;;;;;;;;;3.00;3.00;;;;;15.82;28.28;99080.06;4975326;28;8945;-49
2021/05/03 11:10:00;;;;;;;;;4.00;4.00;;;;;15.83;28.35;99077.03;4978626;28;8830;-49
2021/05/03 11:12:29;;;;;;;;;3.00;3.00;;;;;15.81;28.17;99078.44;4977965;28;8818;-50
2021/05/03 11:15:09;;;;;;;;;4.00;4.00;;;;;15.82;28.10;99074.63;4978613;28;9648;-49
2021/05/03 11:17:34;;;;;;;;;3.40;3.40;;;;;15.84;28.13;99075.91;4979570;28;8802;-50
2021/05/03 11:20:16;;;;;;;;;4.75;4.00;;;;;15.82;28.15;99075.41;4980432;28;8822;-49
2021/05/03 11:23:03;;;;;;;;;4.60;4.00;;;;;15.85;27.95;99074.78;4977291;28;8767;-46
2021/05/03 11:25:31;;;;;;;;;4.20;4.20;;;;;15.83;29.16;99079.75;4976588;28;8897;-45
2021/05/03 11:28:20;;;;;;;;;3.60;3.60;;;;;15.82;28.93;99080.06;4973375;28;8827;-46
2021/05/03 11:30:51;;;;;;;;;3.20;3.20;;;;;15.82;28.75;99072.69;4976075;28;8829;-46
2021/05/03 11:33:23;;;;;;;;;3.00;3.00;;;;;15.83;28.82;99074.31;4976072;28;8805;-46
2021/05/03 11:36:25;;;;;;;;;3.00;3.00;;;;;15.83;28.68;99079.75;4975376;28;8780;-45
2021/05/03 11:42:25;;;;;;;;;3.60;3.60;;;;;15.81;28.61;99059.41;4966377;28;8795;-46
2021/05/03 11:46:40;;;;;;;;;4.80;4.80;;;;;15.80;28.62;99071.44;4977151;28;8758;-46
2021/05/03 11:49:15;;;;;;;;;3.25;3.25;;;;;15.80;28.74;99069.50;4979504;28;8842;-45
2021/05/03 11:51:55;;;;;;;;;4.40;4.40;;;;;15.81;28.53;99068.41;4975326;28;8845;-48
2021/05/03 11:54:31;;;;;;;;;2.40;2.40;;;;;15.79;28.58;99070.59;4959314;28;8829;-48
2021/05/03 11:56:57;;;;;;;;;3.00;3.00;;;;;15.79;28.54;99076.03;4970375;28;8807;-48
2021/05/03 11:59:23;;;;;;;;;3.00;3.00;;;;;15.80;28.58;99077.66;4969948;28;8948;-48
2021/05/03 12:02:01;;;;;;;;;3.00;2.75;;;;;15.78;28.58;99077.19;4959244;28;8904;-48
2021/05/03 12:04:33;;;;;;;;;3.00;3.00;;;;;15.77;28.52;99078.28;4957749;28;9598;-48
2021/05/03 12:06:59;;;;;;;;;2.00;2.00;;;;;15.78;28.45;99074.47;4977441;28;9632;-48
2021/05/03 12:09:25;;;;;;;;;3.00;3.00;;;;;15.81;28.46;99079.28;4958746;28;8830;-48